Time;durP1;ratioP1;P1;durP2;ratioP2;P2;SDS_P1;SDS_P2;PMS_P1;PMS_P2;Temp;Humidity;BMP_temperature;BMP_pressure;BME280_temperature;BME280_humidity;BME280_pressure;Samples;Min_cycle;Max_cycle;Signal;HPM_P1;HPM_P2
2021/10/17 00:00:27;;;;;;;10.32;5.00;;;18.90;50.40;;;;;;5133575;28;20031;-57
2021/10/17 00:02:53;;;;;;;11.07;5.05;;;18.90;50.30;;;;;;5133664;28;20026;-55
2021/10/17 00:05:22;;;;;;;10.95;4.97;;;18.90;50.30;;;;;;5133564;28;20027;-55
2021/10/17 00:07:48;;;;;;;10.93;4.78;;;18.80;50.30;;;;;;5133271;28;20066;-57
2021/10/17 00:10:16;;;;;;;8.73;4.75;;;18.90;50.30;;;;;;5133503;28;20471;-55
2021/10/17 00:12:42;;;;;;;9.25;4.90;;;18.80;50.30;;;;;;5133402;28;20023;-56
2021/10/17 00:15:15;;;;;;;8.93;5.03;;;18.90;50.20;;;;;;5133324;28;20374;-54
2021/10/17 00:17:41;;;;;;;10.55;5.03;;;18.80;50.20;;;;;;5133461;28;20031;-57
2021/10/17 00:20:09;;;;;;;10.65;5.40;;;18.90;50.30;;;;;;5114836;28;20110;-55
2021/10/17 00:22:36;;;;;;;11.98;4.93;;;18.80;50.30;;;;;;5114837;28;20034;-56
2021/10/17 00:25:01;;;;;;;11.30;5.47;;;18.90;50.20;;;;;;5133362;28;20397;-55
2021/10/17 00:27:27;;;;;;;10.88;5.03;;;18.80;50.20;;;;;;5114936;28;20034;-54
2021/10/17 00:29:52;;;;;;;10.35;5.25;;;18.90;50.20;;;;;;5133316;28;20030;-50
2021/10/17 00:32:18;;;;;;;11.98;5.97;;;18.90;50.40;;;;;;5133180;28;20019;-52
2021/10/17 00:34:44;;;;;;;10.07;5.10;;;18.80;50.20;;;;;;5133159;28;20024;-56
2021/10/17 00:37:10;;;;;;;10.15;4.65;;;18.90;50.30;;;;;;5133183;28;20080;-54
2021/10/17 00:39:35;;;;;;;11.07;5.20;;;18.90;50.30;;;;;;5132948;28;20047;-56
2021/10/17 00:42:04;;;;;;;10.23;5.05;;;18.80;50.20;;;;;;5133324;28;20062;-51
2021/10/17 00:44:30;;;;;;;10.82;5.53;;;18.80;50.30;;;;;;5133169;28;20027;-53
2021/10/17 00:46:56;;;;;;;10.23;4.88;;;18.80;50.20;;;;;;5133095;28;20029;-51
2021/10/17 00:49:22;;;;;;;10.48;5.43;;;18.80;50.20;;;;;;5132933;28;20027;-52
2021/10/17 00:51:47;;;;;;;10.05;5.22;;;18.80;50.10;;;;;;5133661;27;20099;-54
2021/10/17 00:54:14;;;;;;;12.75;5.57;;;18.90;50.20;;;;;;5136997;27;20019;-56
2021/10/17 00:56:45;;;;;;;9.65;4.95;;;18.90;50.10;;;;;;5136722;27;20088;-51
2021/10/17 00:59:12;;;;;;;12.43;4.97;;;18.80;50.10;;;;;;5118620;27;20027;-50
2021/10/17 01:01:38;;;;;;;9.73;5.22;;;18.90;50.20;;;;;;5137107;27;20031;-52
2021/10/17 01:04:04;;;;;;;11.30;5.93;;;18.90;50.10;;;;;;5136918;27;20073;-57
2021/10/17 01:06:30;;;;;;;11.15;5.45;;;18.80;50.10;;;;;;5136882;27;20031;-55
2021/10/17 01:08:56;;;;;;;11.75;5.70;;;18.80;50.20;;;;;;5136463;27;20015;-51
2021/10/17 01:11:22;;;;;;;11.13;5.65;;;18.80;50.20;;;;;;5136462;27;20080;-53
2021/10/17 01:13:48;;;;;;;9.98;4.88;;;18.80;50.10;;;;;;5136307;27;20110;-57
2021/10/17 01:16:14;;;;;;;10.57;5.57;;;18.90;50.10;;;;;;5136340;27;20019;-53
2021/10/17 01:18:40;;;;;;;10.45;5.35;;;18.90;50.00;;;;;;5136598;27;20382;-51
2021/10/17 01:21:05;;;;;;;9.40;5.07;;;18.80;50.00;;;;;;5136238;27;20066;-55
2021/10/17 01:23:31;;;;;;;11.02;5.38;;;18.80;50.10;;;;;;5136429;27;20030;-57
2021/10/17 01:25:56;;;;;;;10.40;5.88;;;18.80;50.10;;;;;;5136269;27;20034;-56
2021/10/17 01:28:23;;;;;;;10.43;5.53;;;18.80;50.00;;;;;;5117850;27;20030;-55
2021/10/17 01:30:50;;;;;;;11.40;6.55;;;18.80;50.10;;;;;;5135985;27;20373;-54
2021/10/17 01:33:16;;;;;;;10.38;5.82;;;18.80;50.00;;;;;;5136315;27;20027;-54
2021/10/17 01:35:41;;;;;;;10.27;5.05;;;18.80;49.90;;;;;;5136140;27;20080;-53
2021/10/17 01:38:07;;;;;;;13.00;5.97;;;18.80;49.90;;;;;;5136493;27;20023;-55
2021/10/17 01:40:33;;;;;;;9.73;5.65;;;18.80;50.00;;;;;;5135761;27;20410;-56
2021/10/17 01:42:59;;;;;;;12.02;5.63;;;18.80;49.80;;;;;;5117490;27;20114;-55
2021/10/17 01:45:24;;;;;;;13.02;6.05;;;18.80;49.80;;;;;;5135831;27;20106;-54
2021/10/17 01:47:52;;;;;;;11.18;5.75;;;18.80;49.90;;;;;;5135836;27;20038;-54
2021/10/17 01:50:19;;;;;;;11.43;5.55;;;18.80;49.80;;;;;;5135699;27;20413;-53
2021/10/17 01:52:45;;;;;;;11.50;5.75;;;18.80;49.80;;;;;;5135739;27;20019;-55
2021/10/17 01:55:11;;;;;;;12.70;5.95;;;18.80;49.90;;;;;;5135998;27;20068;-58
2021/10/17 01:57:37;;;;;;;11.75;6.28;;;18.70;49.90;;;;;;5135880;27;20113;-54
2021/10/17 02:00:06;;;;;;;11.55;5.60;;;18.70;49.90;;;;;;5135658;27;20031;-54
2021/10/17 02:02:32;;;;;;;10.32;5.20;;;18.70;49.90;;;;;;5135659;27;20016;-57
2021/10/17 02:04:58;;;;;;;10.20;5.28;;;18.80;49.80;;;;;;5135509;27;20030;-54
2021/10/17 02:07:23;;;;;;;10.68;5.43;;;18.70;49.80;;;;;;5117066;27;20030;-53
2021/10/17 02:09:49;;;;;;;10.60;6.20;;;18.70;49.90;;;;;;5135314;27;20033;-52
2021/10/17 02:12:21;;;;;;;11.93;6.15;;;18.70;49.80;;;;;;5135566;27;20381;-57
2021/10/17 02:14:48;;;;;;;9.60;5.35;;;18.80;49.80;;;;;;5135219;27;20015;-52
2021/10/17 02:17:13;;;;;;;11.48;5.72;;;18.70;49.80;;;;;;5135407;27;20053;-57
2021/10/17 02:19:39;;;;;;;11.27;5.82;;;18.70;49.80;;;;;;5135120;27;20043;-55
2021/10/17 02:22:05;;;;;;;11.07;5.65;;;18.70;49.90;;;;;;5135484;27;20031;-55
2021/10/17 02:24:30;;;;;;;11.07;6.03;;;18.80;49.80;;;;;;5135256;27;20019;-54
2021/10/17 02:26:56;;;;;;;10.27;5.78;;;18.70;49.90;;;;;;5134994;27;20427;-54
2021/10/17 02:29:22;;;;;;;10.52;5.93;;;18.70;50.00;;;;;;5134850;27;20027;-53
2021/10/17 02:31:48;;;;;;;10.20;5.72;;;18.70;49.80;;;;;;5134948;27;20470;-52
2021/10/17 02:34:13;;;;;;;9.80;5.63;;;18.80;49.90;;;;;;5134963;27;20098;-50
2021/10/17 02:36:39;;;;;;;11.60;5.75;;;18.70;49.90;;;;;;5134812;27;20038;-54
2021/10/17 02:39:04;;;;;;;9.45;4.90;;;18.70;49.80;;;;;;5134600;27;20081;-51
2021/10/17 02:41:30;;;;;;;8.88;5.00;;;18.80;49.90;;;;;;5134838;27;20055;-53
2021/10/17 02:43:55;;;;;;;10.80;6.00;;;18.70;49.90;;;;;;5134657;27;20072;-51
2021/10/17 02:46:21;;;;;;;9.40;5.43;;;18.70;49.90;;;;;;5134657;27;20023;-50
2021/10/17 02:48:46;;;;;;;11.35;5.72;;;18.70;49.90;;;;;;5134479;27;20470;-53
2021/10/17 02:51:12;;;;;;;10.63;5.88;;;18.80;49.90;;;;;;5134707;27;20062;-54
2021/10/17 02:53:38;;;;;;;10.85;5.85;;;18.80;49.80;;;;;;5134754;27;20485;-52
2021/10/17 02:56:04;;;;;;;11.82;5.88;;;18.70;49.80;;;;;;5134557;27;20496;-50
2021/10/17 02:58:29;;;;;;;11.18;5.63;;;18.70;49.80;;;;;;5115930;27;20023;-56
2021/10/17 03:00:55;;;;;;;10.15;5.43;;;18.70;49.80;;;;;;5134361;27;20038;-55
2021/10/17 03:03:21;;;;;;;11.75;5.95;;;18.70;49.80;;;;;;5134615;27;20035;-54
2021/10/17 03:05:46;;;;;;;11.18;5.90;;;18.70;49.80;;;;;;5134338;27;20420;-51
2021/10/17 03:08:12;;;;;;;10.52;5.47;;;18.70;49.70;;;;;;5134323;27;20023;-51
2021/10/17 03:10:37;;;;;;;9.98;5.32;;;18.70;49.80;;;;;;5134485;27;20023;-54
2021/10/17 03:13:03;;;;;;;10.82;6.05;;;18.70;49.70;;;;;;5134337;27;20351;-53
2021/10/17 03:15:28;;;;;;;13.15;5.95;;;18.70;49.60;;;;;;5133622;27;20026;-56
2021/10/17 03:17:54;;;;;;;11.13;5.45;;;18.70;49.70;;;;;;5115717;27;20019;-51
2021/10/17 03:20:21;;;;;;;12.40;5.57;;;18.70;49.80;;;;;;5133971;27;20076;-51
2021/10/17 03:22:47;;;;;;;9.60;5.47;;;18.70;49.80;;;;;;5134061;27;20027;-54
2021/10/17 03:25:12;;;;;;;11.68;6.00;;;18.70;49.70;;;;;;5134046;27;20023;-55
2021/10/17 03:27:38;;;;;;;11.82;5.55;;;18.70;49.70;;;;;;5134186;27;20068;-54
2021/10/17 03:30:06;;;;;;;8.70;5.25;;;18.70;49.70;;;;;;5133914;27;20019;-51
2021/10/17 03:32:32;;;;;;;9.93;5.45;;;18.70;49.70;;;;;;5134156;27;20023;-50
2021/10/17 03:34:57;;;;;;;9.45;5.07;;;18.70;49.70;;;;;;5134010;27;20076;-52
2021/10/17 03:37:23;;;;;;;9.40;5.18;;;18.70;49.80;;;;;;5134016;27;20027;-55
2021/10/17 03:39:49;;;;;;;12.98;5.75;;;18.70;49.70;;;;;;5133583;27;20055;-56
2021/10/17 03:42:14;;;;;;;10.73;5.45;;;18.70;49.70;;;;;;5134049;27;20111;-51
2021/10/17 03:44:40;;;;;;;9.02;4.90;;;18.70;49.70;;;;;;5133847;28;20038;-58
2021/10/17 03:47:05;;;;;;;10.52;5.68;;;18.70;49.80;;;;;;5133783;28;20531;-56
2021/10/17 03:49:31;;;;;;;8.93;5.07;;;18.70;49.70;;;;;;5133794;28;20015;-51
2021/10/17 03:51:56;;;;;;;8.70;5.35;;;18.70;49.70;;;;;;5133646;28;20035;-51
2021/10/17 03:54:22;;;;;;;9.75;5.20;;;18.70;49.60;;;;;;5133601;28;20045;-52
2021/10/17 03:56:47;;;;;;;10.50;5.57;;;18.70;49.60;;;;;;5133571;28;20024;-54
2021/10/17 03:59:15;;;;;;;9.55;4.95;;;18.70;49.60;;;;;;5133580;28;20103;-54
2021/10/17 04:01:41;;;;;;;8.80;4.53;;;18.70;49.70;;;;;;5133567;28;20093;-56
2021/10/17 04:04:06;;;;;;;9.45;4.93;;;18.70;49.70;;;;;;5133636;28;20057;-58
2021/10/17 04:06:31;;;;;;;8.77;4.68;;;18.70;49.80;;;;;;5133623;28;20076;-53
2021/10/17 04:08:57;;;;;;;10.38;5.32;;;18.70;49.70;;;;;;5133515;28;20023;-57
2021/10/17 04:11:23;;;;;;;9.70;5.20;;;18.70;49.70;;;;;;5133471;28;20023;-55
2021/10/17 04:13:48;;;;;;;11.50;5.40;;;18.70;49.70;;;;;;5133737;28;20023;-55
2021/10/17 04:16:14;;;;;;;9.13;4.53;;;18.70;49.60;;;;;;5133609;28;20103;-52
2021/10/17 04:18:39;;;;;;;9.88;5.53;;;18.70;49.60;;;;;;5133758;28;20031;-50
2021/10/17 04:21:05;;;;;;;10.48;5.20;;;18.70;49.60;;;;;;5133456;28;20039;-51
2021/10/17 04:23:30;;;;;;;8.50;4.68;;;18.70;49.60;;;;;;5133711;28;20023;-56
2021/10/17 04:25:56;;;;;;;9.68;4.85;;;18.70;49.60;;;;;;5133333;27;20420;-56
2021/10/17 04:28:21;;;;;;;9.50;5.38;;;18.70;49.60;;;;;;5136860;27;20028;-57
2021/10/17 04:30:47;;;;;;;9.98;4.97;;;18.70;49.60;;;;;;5137756;27;20051;-55
2021/10/17 04:33:12;;;;;;;8.77;4.95;;;18.70;49.60;;;;;;5137220;27;20374;-51
2021/10/17 04:35:39;;;;;;;10.38;5.35;;;18.70;49.60;;;;;;5137278;27;20023;-51
2021/10/17 04:38:06;;;;;;;9.85;5.03;;;18.70;49.60;;;;;;5137241;27;20031;-53
2021/10/17 04:40:32;;;;;;;9.05;4.57;;;18.70;49.60;;;;;;5136979;27;20047;-50
2021/10/17 04:42:59;;;;;;;8.80;4.95;;;18.70;49.60;;;;;;5118611;27;20347;-56
2021/10/17 04:45:25;;;;;;;9.50;4.72;;;18.80;49.60;;;;;;5137301;27;20030;-55
2021/10/17 04:47:51;;;;;;;10.02;4.47;;;18.80;49.50;;;;;;5136982;27;20023;-56
2021/10/17 04:50:16;;;;;;;12.50;4.78;;;18.80;49.50;;;;;;5136995;27;20738;-58
2021/10/17 04:52:42;;;;;;;9.73;4.78;;;18.80;49.60;;;;;;5136990;27;20478;-57
2021/10/17 04:55:08;;;;;;;10.48;5.00;;;18.80;49.50;;;;;;5136726;27;20505;-55
2021/10/17 04:57:37;;;;;;;11.40;4.90;;;18.80;49.50;;;;;;5136831;27;20027;-50
2021/10/17 05:00:04;;;;;;;8.68;4.40;;;18.70;49.60;;;;;;5136637;27;20032;-51
2021/10/17 05:02:29;;;;;;;9.55;4.70;;;18.80;49.60;;;;;;5136609;27;20513;-56
2021/10/17 05:04:55;;;;;;;9.48;4.65;;;18.80;49.60;;;;;;5136720;27;20102;-55
2021/10/17 05:07:20;;;;;;;8.82;4.57;;;18.80;49.50;;;;;;5136641;27;20098;-57
2021/10/17 05:09:46;;;;;;;8.13;4.10;;;18.80;49.60;;;;;;5136376;27;20023;-51
2021/10/17 05:12:11;;;;;;;9.30;4.63;;;18.80;49.50;;;;;;5136672;27;20379;-51
2021/10/17 05:14:37;;;;;;;8.85;4.20;;;18.80;49.60;;;;;;5136452;27;20023;-54
2021/10/17 05:17:02;;;;;;;8.98;4.30;;;18.80;49.60;;;;;;5136634;27;20411;-53
2021/10/17 05:19:28;;;;;;;8.43;4.20;;;18.80;49.60;;;;;;5136210;27;20028;-52
2021/10/17 05:21:54;;;;;;;9.48;4.80;;;18.80;49.60;;;;;;5136356;27;20031;-53
2021/10/17 05:24:19;;;;;;;8.32;4.15;;;18.80;49.60;;;;;;5136149;27;20038;-52
2021/10/17 05:26:45;;;;;;;7.97;3.97;;;18.80;49.60;;;;;;5136230;27;20053;-50
2021/10/17 05:29:10;;;;;;;8.80;4.53;;;18.80;49.60;;;;;;5136372;27;20020;-53
2021/10/17 05:31:36;;;;;;;9.60;4.75;;;18.80;49.60;;;;;;5136438;27;20075;-53
2021/10/17 05:34:02;;;;;;;9.15;4.38;;;18.80;49.60;;;;;;5136048;27;20031;-52
2021/10/17 05:36:27;;;;;;;8.88;4.07;;;18.80;49.60;;;;;;5135976;27;20060;-52
2021/10/17 05:38:53;;;;;;;8.57;4.55;;;18.80;49.60;;;;;;5135274;27;20016;-54
2021/10/17 05:41:22;;;;;;;9.30;4.63;;;18.80;49.60;;;;;;5135862;27;20048;-49
2021/10/17 05:43:50;;;;;;;10.43;4.10;;;18.80;49.60;;;;;;5135751;27;20023;-49
2021/10/17 05:46:16;;;;;;;8.07;4.45;;;18.80;49.60;;;;;;5135840;27;20041;-49
2021/10/17 05:48:42;;;;;;;10.27;4.53;;;18.80;49.60;;;;;;5135996;27;20466;-49
2021/10/17 05:51:07;;;;;;;8.13;4.32;;;18.80;49.60;;;;;;5135837;27;20093;-54
2021/10/17 05:53:33;;;;;;;8.30;4.00;;;18.80;49.60;;;;;;5135573;27;20027;-53
2021/10/17 05:55:59;;;;;;;7.95;4.30;;;18.80;49.60;;;;;;5135632;27;20470;-55
2021/10/17 05:58:24;;;;;;;8.88;4.38;;;18.80;49.60;;;;;;5117046;27;20027;-57
2021/10/17 06:00:50;;;;;;;6.72;3.60;;;18.80;49.60;;;;;;5135551;27;20048;-54
2021/10/17 06:03:15;;;;;;;8.68;3.97;;;18.80;49.60;;;;;;5135490;27;20355;-53
2021/10/17 06:05:41;;;;;;;8.20;4.00;;;18.80;49.60;;;;;;5135440;27;20467;-55
2021/10/17 06:08:06;;;;;;;8.18;3.83;;;18.80;49.50;;;;;;5135314;27;20034;-53
2021/10/17 06:10:32;;;;;;;9.35;4.07;;;18.80;49.60;;;;;;5116905;27;20030;-53
2021/10/17 06:12:58;;;;;;;8.27;4.30;;;18.80;49.60;;;;;;5135301;27;20064;-55
2021/10/17 06:15:24;;;;;;;8.18;4.40;;;18.80;49.50;;;;;;5135326;27;20023;-54
2021/10/17 06:17:49;;;;;;;7.25;3.85;;;18.80;49.50;;;;;;5135231;27;20019;-55
2021/10/17 06:20:15;;;;;;;8.70;3.80;;;18.80;49.50;;;;;;5135156;27;20054;-54
2021/10/17 06:22:40;;;;;;;9.23;4.28;;;18.80;49.60;;;;;;5135076;27;20071;-54
2021/10/17 06:25:06;;;;;;;8.32;4.35;;;18.80;49.50;;;;;;5135366;27;20036;-51
2021/10/17 06:27:32;;;;;;;8.57;3.83;;;18.80;49.60;;;;;;5134965;27;20530;-54
2021/10/17 06:29:58;;;;;;;8.77;3.85;;;18.80;49.60;;;;;;5134989;27;20102;-52
2021/10/17 06:32:23;;;;;;;6.95;3.53;;;18.80;49.60;;;;;;5134970;27;20031;-50
2021/10/17 06:34:49;;;;;;;8.75;4.03;;;18.80;49.50;;;;;;5134907;27;20027;-51
2021/10/17 06:37:14;;;;;;;9.88;4.50;;;18.80;49.60;;;;;;5134771;27;20031;-51
2021/10/17 06:39:40;;;;;;;7.07;3.88;;;18.80;49.50;;;;;;5134671;27;20039;-56
2021/10/17 06:42:07;;;;;;;8.43;4.30;;;18.90;49.50;;;;;;5135035;27;20031;-55
2021/10/17 06:44:33;;;;;;;8.02;3.85;;;18.90;49.60;;;;;;5134732;27;20096;-58
2021/10/17 06:46:58;;;;;;;10.73;3.97;;;18.90;49.50;;;;;;5134679;27;20031;-54
2021/10/17 06:49:24;;;;;;;7.90;3.70;;;18.90;49.50;;;;;;5133886;27;20052;-55
2021/10/17 06:51:49;;;;;;;8.63;3.40;;;18.90;49.50;;;;;;5134462;27;20028;-57
2021/10/17 06:54:15;;;;;;;7.45;3.97;;;18.80;49.40;;;;;;5134684;27;20023;-59
2021/10/17 06:56:41;;;;;;;9.63;4.53;;;18.90;49.50;;;;;;5134487;27;20031;-58
2021/10/17 06:59:07;;;;;;;8.68;4.13;;;18.90;49.50;;;;;;5134415;27;20019;-55
2021/10/17 07:01:33;;;;;;;8.45;4.15;;;18.90;49.50;;;;;;5134363;27;20039;-56
2021/10/17 07:03:58;;;;;;;8.25;4.38;;;18.80;49.50;;;;;;5116032;27;20027;-53
2021/10/17 07:06:24;;;;;;;8.15;3.70;;;18.90;49.50;;;;;;5134556;27;20023;-57
2021/10/17 07:08:49;;;;;;;8.35;3.80;;;18.90;49.50;;;;;;5134425;27;20282;-53
2021/10/17 07:11:15;;;;;;;9.02;3.85;;;18.90;49.50;;;;;;5134343;27;20063;-58
2021/10/17 07:13:40;;;;;;;9.43;3.83;;;18.90;49.50;;;;;;5134182;27;20423;-51
2021/10/17 07:16:06;;;;;;;8.15;4.00;;;18.90;49.50;;;;;;5134184;27;20040;-55
2021/10/17 07:18:31;;;;;;;9.75;3.90;;;18.90;49.50;;;;;;5134026;27;20042;-55
2021/10/17 07:20:57;;;;;;;6.82;3.38;;;18.90;49.50;;;;;;5133723;27;20039;-58
2021/10/17 07:23:22;;;;;;;6.93;3.92;;;18.90;49.50;;;;;;5134346;27;20059;-54
2021/10/17 07:25:48;;;;;;;8.52;4.25;;;18.90;49.50;;;;;;5133925;27;20059;-57
2021/10/17 07:28:14;;;;;;;8.05;3.90;;;18.90;49.50;;;;;;5133989;27;20028;-56
2021/10/17 07:30:39;;;;;;;9.43;3.72;;;18.90;49.50;;;;;;5134178;27;20031;-54
2021/10/17 07:33:05;;;;;;;7.75;3.60;;;18.90;49.50;;;;;;5134159;27;20088;-56
2021/10/17 07:35:30;;;;;;;7.65;3.83;;;18.90;49.50;;;;;;5133772;27;20039;-57
2021/10/17 07:37:57;;;;;;;8.10;3.85;;;18.90;49.50;;;;;;5134057;27;20027;-58
2021/10/17 07:40:24;;;;;;;8.50;3.65;;;18.90;49.50;;;;;;5133664;27;20489;-54
2021/10/17 07:42:50;;;;;;;8.65;3.78;;;18.90;49.50;;;;;;5133887;27;20054;-57
2021/10/17 07:45:15;;;;;;;8.73;3.67;;;18.90;49.40;;;;;;5133904;27;20462;-54
2021/10/17 07:47:41;;;;;;;7.13;3.72;;;18.90;49.40;;;;;;5133761;28;20030;-53
2021/10/17 07:50:08;;;;;;;7.32;3.88;;;18.90;49.50;;;;;;5134052;28;20023;-55
2021/10/17 07:52:34;;;;;;;8.27;3.90;;;18.90;49.50;;;;;;5134083;28;20058;-55
2021/10/17 07:55:00;;;;;;;7.43;3.60;;;18.90;49.40;;;;;;5133942;28;20471;-56
2021/10/17 07:57:25;;;;;;;8.50;3.97;;;19.00;49.50;;;;;;5133690;28;20027;-59
2021/10/17 07:59:51;;;;;;;9.98;3.63;;;18.90;49.40;;;;;;5133554;28;20031;-55
2021/10/17 08:02:17;;;;;;;8.55;3.53;;;18.90;49.40;;;;;;5136842;27;20023;-60
2021/10/17 08:04:47;;;;;;;8.05;3.63;;;18.90;49.40;;;;;;5119288;27;20385;-57
2021/10/17 08:07:13;;;;;;;7.55;3.25;;;18.90;49.40;;;;;;5137838;27;20080;-56
2021/10/17 08:09:39;;;;;;;6.85;3.15;;;18.90;49.40;;;;;;5137674;27;20386;-56
2021/10/17 08:12:05;;;;;;;7.18;3.50;;;18.90;49.40;;;;;;5137619;27;20038;-56
2021/10/17 08:14:30;;;;;;;6.60;3.17;;;18.90;49.50;;;;;;5137526;27;20046;-57
2021/10/17 08:16:56;;;;;;;7.10;3.40;;;19.00;49.40;;;;;;5137867;27;20023;-54
2021/10/17 08:19:21;;;;;;;6.95;3.60;;;18.90;49.50;;;;;;5137392;27;20370;-57
2021/10/17 08:21:46;;;;;;;8.30;3.78;;;18.90;49.40;;;;;;5137531;27;20482;-57
2021/10/17 08:24:12;;;;;;;7.70;3.42;;;19.00;49.40;;;;;;5137375;27;20061;-57
2021/10/17 08:26:38;;;;;;;8.40;3.53;;;18.90;49.40;;;;;;5137352;27;20036;-56
2021/10/17 08:29:03;;;;;;;9.38;3.55;;;18.90;49.40;;;;;;5137188;27;20019;-57
2021/10/17 08:31:29;;;;;;;7.50;3.58;;;18.90;49.40;;;;;;5137284;27;20019;-56
2021/10/17 08:33:54;;;;;;;7.18;3.38;;;19.00;49.40;;;;;;5137185;27;20054;-57
2021/10/17 08:36:20;;;;;;;7.40;3.72;;;19.00;49.50;;;;;;5137208;27;20023;-55
2021/10/17 08:38:45;;;;;;;8.45;4.10;;;19.00;49.40;;;;;;5118569;27;20035;-56
2021/10/17 08:41:12;;;;;;;7.13;3.10;;;19.00;49.40;;;;;;5137269;27;20031;-56
2021/10/17 08:43:38;;;;;;;6.97;3.50;;;19.00;49.40;;;;;;5137297;27;20072;-56
2021/10/17 08:46:05;;;;;;;7.05;3.60;;;19.00;49.40;;;;;;5137034;27;20416;-56
2021/10/17 08:48:32;;;;;;;7.13;3.28;;;19.00;49.40;;;;;;5136804;27;20020;-53
2021/10/17 08:50:58;;;;;;;7.43;3.75;;;19.00;49.40;;;;;;5137111;27;20035;-56
2021/10/17 08:53:26;;;;;;;8.35;3.05;;;19.00;49.40;;;;;;5137128;27;20103;-55
2021/10/17 08:55:51;;;;;;;6.78;3.22;;;19.00;49.40;;;;;;5136999;27;20415;-58
2021/10/17 08:58:17;;;;;;;7.13;3.30;;;19.00;49.40;;;;;;5137016;27;20027;-50
2021/10/17 09:00:42;;;;;;;6.88;3.50;;;19.00;49.40;;;;;;5136927;27;20031;-56
2021/10/17 09:03:08;;;;;;;8.98;3.50;;;19.00;49.40;;;;;;5136848;27;20073;-54
2021/10/17 09:05:35;;;;;;;7.45;3.80;;;19.00;49.40;;;;;;5136747;27;20145;-54
2021/10/17 09:08:01;;;;;;;6.63;3.17;;;19.00;49.40;;;;;;5136537;27;20019;-53
2021/10/17 09:10:26;;;;;;;8.05;3.42;;;19.00;49.40;;;;;;5136922;27;20481;-50
2021/10/17 09:12:52;;;;;;;6.97;3.17;;;19.00;49.40;;;;;;5135642;27;20020;-50
2021/10/17 09:15:26;;;;;;;8.18;3.72;;;19.00;49.40;;;;;;5136607;27;20019;-49
2021/10/17 09:18:15;;;;;;;7.38;3.50;;;19.00;49.40;;;;;;5136864;27;20027;-50
2021/10/17 09:20:46;;;;;;;7.60;3.25;;;19.00;49.40;;;;;;5136645;27;20126;-52
2021/10/17 09:23:16;;;;;;;6.43;3.08;;;19.00;49.40;;;;;;5136657;27;20020;-50
2021/10/17 09:25:42;;;;;;;8.25;3.05;;;19.00;49.40;;;;;;5118255;27;20148;-49
2021/10/17 09:28:17;;;;;;;7.03;3.30;;;19.00;49.40;;;;;;5136250;27;20106;-51
2021/10/17 09:30:55;;;;;;;6.28;3.03;;;19.10;49.40;;;;;;5136110;27;20027;-50
2021/10/17 09:33:21;;;;;;;8.77;3.25;;;19.10;49.40;;;;;;5136429;27;20039;-52
2021/10/17 09:35:46;;;;;;;6.22;3.03;;;19.00;49.40;;;;;;5136108;27;20431;-52
2021/10/17 09:38:15;;;;;;;5.75;2.85;;;19.00;49.30;;;;;;5136003;27;20031;-50
2021/10/17 09:40:43;;;;;;;6.07;3.22;;;19.00;49.40;;;;;;5135593;27;20051;-50
2021/10/17 09:43:21;;;;;;;7.35;3.10;;;19.10;49.30;;;;;;5135857;27;20049;-51
2021/10/17 09:45:47;;;;;;;7.07;2.92;;;19.10;49.40;;;;;;5135889;27;20413;-51
2021/10/17 09:48:45;;;;;;;6.85;3.13;;;19.10;49.40;;;;;;5135802;27;20022;-52
2021/10/17 09:51:13;;;;;;;7.50;3.58;;;19.10;49.40;;;;;;5079392;27;20056;-53
2021/10/17 09:53:52;;;;;;;6.85;3.17;;;19.10;49.40;;;;;;5135609;27;20406;-53
2021/10/17 09:56:32;;;;;;;7.65;3.20;;;19.10;49.30;;;;;;5135514;27;20414;-54
2021/10/17 09:59:04;;;;;;;6.20;3.00;;;19.10;49.40;;;;;;5135562;27;20031;-53
2021/10/17 10:01:31;;;;;;;7.65;2.85;;;19.10;49.30;;;;;;5135359;27;20054;-50
2021/10/17 10:03:59;;;;;;;5.95;3.00;;;19.10;49.30;;;;;;5135494;27;20023;-50
2021/10/17 10:06:26;;;;;;;7.00;2.80;;;19.10;49.30;;;;;;5135564;27;20101;-49
2021/10/17 10:09:01;;;;;;;7.78;3.35;;;19.10;49.30;;;;;;5135173;27;20459;-51
2021/10/17 10:11:28;;;;;;;5.70;2.72;;;19.10;49.30;;;;;;5135391;27;20110;-51
2021/10/17 10:13:59;;;;;;;7.10;3.25;;;19.10;49.30;;;;;;5135107;27;20027;-52
2021/10/17 10:16:26;;;;;;;7.20;3.13;;;19.20;49.30;;;;;;5135280;27;20026;-50
2021/10/17 10:18:59;;;;;;;8.50;3.58;;;19.20;49.30;;;;;;5135045;27;20023;-50
2021/10/17 10:21:24;;;;;;;7.78;3.20;;;19.20;49.30;;;;;;5135089;27;20023;-51
2021/10/17 10:23:52;;;;;;;7.55;3.42;;;19.20;49.30;;;;;;5135020;27;20019;-49
2021/10/17 10:26:21;;;;;;;5.95;3.08;;;19.20;49.30;;;;;;5134979;27;20023;-50
2021/10/17 10:28:47;;;;;;;7.18;2.72;;;19.20;49.30;;;;;;5134989;27;20027;-50
2021/10/17 10:31:53;;;;;;;7.30;2.78;;;19.20;49.30;;;;;;5135245;27;20026;-49
2021/10/17 10:34:21;;;;;;;6.72;2.92;;;19.20;49.30;;;;;;5031535;28;20029;-51
2021/10/17 10:36:47;;;;;;;6.32;3.08;;;19.20;49.30;;;;;;5118056;27;20088;-52
2021/10/17 10:39:18;;;;;;;6.40;3.25;;;19.20;49.20;;;;;;5134776;27;20042;-49
2021/10/17 10:41:48;;;;;;;7.68;3.42;;;19.20;49.20;;;;;;5116300;27;20059;-52
2021/10/17 10:44:14;;;;;;;6.97;3.53;;;19.20;49.20;;;;;;5134887;27;20043;-50
2021/10/17 10:46:40;;;;;;;7.18;2.78;;;19.30;49.20;;;;;;5134691;27;20023;-51
2021/10/17 10:49:06;;;;;;;6.07;2.83;;;19.20;49.20;;;;;;5134632;27;20106;-52
2021/10/17 10:51:43;;;;;;;6.55;2.80;;;19.20;49.20;;;;;;5134484;27;20053;-53
2021/10/17 10:54:23;;;;;;;8.40;3.10;;;19.30;49.20;;;;;;5134606;27;20019;-52
2021/10/17 10:56:52;;;;;;;8.15;2.60;;;19.30;49.20;;;;;;5134416;27;20465;-53
2021/10/17 10:59:21;;;;;;;6.57;2.95;;;19.30;49.10;;;;;;5134565;27;20441;-54
2021/10/17 11:01:56;;;;;;;6.90;2.88;;;19.30;49.10;;;;;;5134361;27;20027;-54
2021/10/17 11:04:45;;;;;;;;;;;19.30;49.10;;;;;;5134776;27;20068;-54
2021/10/17 11:07:21;;;;;;;6.30;3.38;;;19.30;49.10;;;;;;5134332;27;19948;-55
2021/10/17 11:09:48;;;;;;;5.78;2.80;;;19.30;49.00;;;;;;5134542;27;20031;-51
2021/10/17 11:12:39;;;;;;;6.20;3.30;;;19.30;49.00;;;;;;5134210;27;20030;-52
2021/10/17 11:15:06;;;;;;;6.35;2.60;;;19.40;49.20;;;;;;5134179;27;20031;-54
2021/10/17 11:17:32;;;;;;;5.60;2.58;;;19.40;49.10;;;;;;5133949;27;20031;-53
2021/10/17 11:19:57;;;;;;;6.97;3.00;;;19.40;49.10;;;;;;5133781;27;20042;-57
2021/10/17 11:22:24;;;;;;;7.03;2.50;;;19.40;49.10;;;;;;5115795;27;20028;-54
2021/10/17 11:24:56;;;;;;;6.53;2.38;;;19.40;49.10;;;;;;5133980;27;20035;-54
2021/10/17 11:27:22;;;;;;;7.50;2.85;;;19.40;49.20;;;;;;5134001;27;20027;-53
2021/10/17 11:29:51;;;;;;;5.55;2.40;;;19.40;49.10;;;;;;5133967;27;20023;-53
2021/10/17 11:32:17;;;;;;;7.65;3.22;;;19.40;49.10;;;;;;5133965;27;20038;-56
2021/10/17 11:34:59;;;;;;;7.55;3.00;;;19.40;49.10;;;;;;5134163;27;20022;-56
2021/10/17 11:37:28;;;;;;;6.80;2.83;;;19.40;49.10;;;;;;5133462;27;20497;-57
2021/10/17 11:40:08;;;;;;;6.00;2.33;;;19.40;49.00;;;;;;5133530;27;20084;-55
2021/10/17 11:42:49;;;;;;;6.45;2.92;;;19.40;49.10;;;;;;5134011;27;20386;-54
2021/10/17 11:45:26;;;;;;;5.80;2.38;;;19.40;49.10;;;;;;5133743;27;20023;-56
2021/10/17 11:47:53;;;;;;;6.57;2.85;;;19.50;49.10;;;;;;5133719;27;20027;-55
2021/10/17 11:50:27;;;;;;;6.22;2.80;;;19.50;49.10;;;;;;5133648;28;20053;-56
2021/10/17 11:52:56;;;;;;;6.47;2.95;;;19.50;49.00;;;;;;5133957;28;20019;-53
2021/10/17 11:55:56;;;;;;;5.95;2.38;;;19.50;49.00;;;;;;5133648;28;20386;-54
2021/10/17 11:58:24;;;;;;;6.63;3.08;;;19.50;49.00;;;;;;5128367;28;20042;-54
2021/10/17 12:00:52;;;;;;;6.88;2.42;;;19.50;49.00;;;;;;5133461;28;20486;-54
2021/10/17 12:03:20;;;;;;;5.82;2.75;;;19.50;49.00;;;;;;5133867;28;20030;-57
2021/10/17 12:05:47;;;;;;;6.40;2.97;;;19.50;49.00;;;;;;5133569;28;20036;-55
2021/10/17 12:08:24;;;;;;;5.63;2.80;;;19.50;49.00;;;;;;5133556;28;20497;-55
2021/10/17 12:11:09;;;;;;;5.40;2.60;;;19.50;49.00;;;;;;5133495;28;20019;-56
2021/10/17 12:13:44;;;;;;;5.82;2.40;;;19.50;49.00;;;;;;5133465;28;20587;-53
2021/10/17 12:16:16;;;;;;;5.88;2.47;;;19.50;49.00;;;;;;5133441;28;20035;-53
2021/10/17 12:18:47;;;;;;;7.90;2.92;;;19.50;49.00;;;;;;5133440;28;20024;-53
2021/10/17 12:21:16;;;;;;;6.70;2.80;;;19.50;49.00;;;;;;5133231;28;20481;-55
2021/10/17 12:23:52;;;;;;;5.10;2.33;;;19.50;49.00;;;;;;5115147;28;20466;-49
2021/10/17 12:26:19;;;;;;;7.78;2.50;;;19.50;49.00;;;;;;5133351;28;20023;-53
2021/10/17 12:29:08;;;;;;;5.22;2.33;;;19.50;49.00;;;;;;5133251;28;20015;-56
2021/10/17 12:31:37;;;;;;;5.72;2.85;;;19.50;49.00;;;;;;5133177;28;20412;-55
2021/10/17 12:34:07;;;;;;;5.82;2.50;;;19.50;49.00;;;;;;5133230;28;20470;-52
2021/10/17 12:36:34;;;;;;;6.40;2.47;;;19.50;49.00;;;;;;5133260;28;20026;-55
2021/10/17 12:39:04;;;;;;;5.93;2.85;;;19.50;49.00;;;;;;5133355;28;20027;-50
2021/10/17 12:41:30;;;;;;;6.47;2.33;;;19.60;49.00;;;;;;5133214;28;20031;-53
2021/10/17 12:44:02;;;;;;;5.10;2.28;;;19.50;49.00;;;;;;5133072;28;20026;-54
2021/10/17 12:46:28;;;;;;;5.80;2.83;;;19.50;48.90;;;;;;5133097;28;20051;-53